Time;durP1;ratioP1;P1;durP2;ratioP2;P2;SDS_P1;SDS_P2;PMS_P1;PMS_P2;Temp;Humidity;BMP_temperature;BMP_pressure;BME280_temperature;BME280_humidity;BME280_pressure;Samples;Min_cycle;Max_cycle;Signal;HPM_P1;HPM_P2
2022/12/17 13:08:23;;;;;;;35.83;22.17;;;;;;;;;;5039884;28;20041;-81
2022/12/17 13:11:35;;;;;;;28.48;17.00;;;;;;;;;;5043729;28;20045;-82
2022/12/17 13:14:26;;;;;;;34.70;21.55;;;;;;;;;;5043371;28;20049;-81
2022/12/17 13:17:15;;;;;;;36.00;20.58;;;;;;;;;;5036687;28;20038;-82
2022/12/17 13:20:20;;;;;;;33.60;21.73;;;;;;;;;;5036616;28;20038;-82
2022/12/17 13:23:08;;;;;;;33.93;21.80;;;;;;;;;;5037746;28;20448;-84
2022/12/17 13:26:14;;;;;;;27.30;18.52;;;;;;;;;;5042787;28;20046;-81
2022/12/17 13:29:10;;;;;;;33.10;16.83;;;;;;;;;;5042718;28;20041;-81
2022/12/17 13:32:50;;;;;;;24.73;15.70;;;;;;;;;;5036562;28;20034;-82
2022/12/17 13:35:55;;;;;;;27.63;18.25;;;;;;;;;;5035922;28;20041;-82
2022/12/17 13:38:58;;;;;;;36.05;19.40;;;;;;;;;;5036301;28;20134;-82
2022/12/17 13:41:44;;;;;;;37.55;20.52;;;;;;;;;;5036146;28;20037;-82
2022/12/17 13:44:42;;;;;;;35.97;20.70;;;;;;;;;;5035727;28;20030;-83
2022/12/17 13:47:30;;;;;;;39.20;22.45;;;;;;;;;;5036101;28;20034;-82
2022/12/17 13:50:22;;;;;;;29.95;17.38;;;;;;;;;;5042829;28;20485;-82
2022/12/17 13:53:10;;;;;;;38.30;21.92;;;;;;;;;;5043131;28;20052;-82
2022/12/17 13:55:57;;;;;;;41.30;21.10;;;;;;;;;;5042712;28;20041;-82
2022/12/17 13:58:42;;;;;;;31.08;17.95;;;;;;;;;;5035806;28;20042;-82
2022/12/17 14:01:29;;;;;;;26.77;14.80;;;;;;;;;;5042596;28;20041;-82
2022/12/17 14:04:23;;;;;;;27.15;16.27;;;;;;;;;;5042220;28;20460;-82
2022/12/17 14:07:09;;;;;;;26.92;14.82;;;;;;;;;;5035718;28;20045;-83
2022/12/17 14:09:55;;;;;;;22.48;13.23;;;;;;;;;;5036212;28;20448;-80
2022/12/17 14:12:42;;;;;;;30.02;16.55;;;;;;;;;;5035361;28;20042;-83
2022/12/17 14:15:28;;;;;;;33.03;18.65;;;;;;;;;;5042083;28;20049;-81
2022/12/17 14:18:19;;;;;;;25.88;14.45;;;;;;;;;;5035648;28;20042;-80
2022/12/17 14:21:05;;;;;;;20.65;11.27;;;;;;;;;;5035387;28;20045;-80
2022/12/17 14:23:51;;;;;;;34.83;20.60;;;;;;;;;;5035614;28;20037;-81
2022/12/17 14:26:48;;;;;;;59.30;32.80;;;;;;;;;;5041610;28;20116;-81
2022/12/17 14:29:45;;;;;;;38.53;19.30;;;;;;;;;;5035201;28;20046;-83
2022/12/17 14:32:35;;;;;;;44.58;25.02;;;;;;;;;;5041832;28;20050;-81
2022/12/17 14:35:27;;;;;;;35.90;20.65;;;;;;;;;;5041873;28;20045;-81
2022/12/17 14:38:17;;;;;;;54.75;28.10;;;;;;;;;;5041879;28;20053;-81
2022/12/17 14:44:27;;;;;;;42.00;22.63;;;;;;;;;;5035627;28;20408;-84
2022/12/17 14:47:28;;;;;;;36.67;20.95;;;;;;;;;;5034508;28;20041;-80
2022/12/17 14:50:16;;;;;;;51.78;29.60;;;;;;;;;;5035954;28;20125;-81
2022/12/17 14:53:25;;;;;;;60.83;30.08;;;;;;;;;;5036835;28;20050;-81
2022/12/17 14:56:21;;;;;;;62.45;33.03;;;;;;;;;;5026278;28;20033;-82
2022/12/17 14:59:24;;;;;;;60.10;32.58;;;;;;;;;;5045144;28;20041;-79
2022/12/17 15:02:19;;;;;;;38.45;23.13;;;;;;;;;;5051190;28;20049;-82
2022/12/17 15:05:04;;;;;;;53.40;31.55;;;;;;;;;;5044024;28;20038;-81
2022/12/17 15:07:50;;;;;;;40.75;22.67;;;;;;;;;;5034515;28;20380;-81
2022/12/17 15:10:36;;;;;;;36.70;20.40;;;;;;;;;;5049528;28;20378;-82
2022/12/17 15:13:22;;;;;;;31.67;21.00;;;;;;;;;;5042152;28;20041;-81
2022/12/17 15:16:07;;;;;;;60.88;33.30;;;;;;;;;;5035406;28;20037;-82
2022/12/17 15:18:52;;;;;;;41.85;24.27;;;;;;;;;;5050168;28;20037;-82
2022/12/17 15:21:37;;;;;;;32.53;21.00;;;;;;;;;;5043663;28;20037;-83
2022/12/17 15:24:23;;;;;;;41.20;22.70;;;;;;;;;;5051562;28;20033;-82
2022/12/17 15:27:13;;;;;;;40.65;23.40;;;;;;;;;;5053996;28;20048;-81
2022/12/17 15:29:58;;;;;;;47.10;24.15;;;;;;;;;;5054143;28;20041;-82
2022/12/17 15:32:45;;;;;;;48.50;23.70;;;;;;;;;;5032862;28;20476;-81
2022/12/17 15:35:31;;;;;;;47.50;26.85;;;;;;;;;;5037548;28;20417;-82
2022/12/17 15:38:16;;;;;;;38.38;22.75;;;;;;;;;;5043596;28;20029;-81
2022/12/17 15:44:07;;;;;;;75.32;37.85;;;;;;;;;;5055652;28;20052;-82
2022/12/17 15:46:53;;;;;;;58.78;30.48;;;;;;;;;;5046398;28;20037;-81
2022/12/17 15:49:43;;;;;;;60.13;31.50;;;;;;;;;;5055296;28;20032;-81
2022/12/17 15:52:29;;;;;;;58.50;32.83;;;;;;;;;;5065623;28;20036;-81
2022/12/17 15:55:15;;;;;;;44.67;26.85;;;;;;;;;;5057348;28;20037;-82
2022/12/17 15:58:00;;;;;;;33.05;19.65;;;;;;;;;;5053492;28;20056;-81
2022/12/17 16:00:46;;;;;;;38.25;21.52;;;;;;;;;;5060134;28;20392;-82
2022/12/17 16:03:32;;;;;;;32.58;19.08;;;;;;;;;;5060114;28;20040;-81
2022/12/17 16:06:17;;;;;;;39.03;20.00;;;;;;;;;;5053521;28;20387;-81
2022/12/17 16:09:02;;;;;;;30.38;16.98;;;;;;;;;;5060559;28;20036;-81
2022/12/17 16:11:48;;;;;;;30.00;17.77;;;;;;;;;;5059852;28;20052;-81
2022/12/17 16:14:34;;;;;;;30.00;17.40;;;;;;;;;;5053386;28;20036;-81
2022/12/17 16:17:19;;;;;;;29.85;17.02;;;;;;;;;;5059560;28;20048;-82
2022/12/17 16:20:05;;;;;;;25.02;13.63;;;;;;;;;;5032171;28;20468;-82
2022/12/17 16:22:51;;;;;;;38.22;22.60;;;;;;;;;;5040229;28;20388;-80
2022/12/17 16:25:37;;;;;;;28.60;16.15;;;;;;;;;;5048110;28;20037;-82
2022/12/17 16:28:23;;;;;;;52.13;28.27;;;;;;;;;;5042387;28;20038;-82
2022/12/17 16:31:11;;;;;;;44.65;25.40;;;;;;;;;;5042857;28;20037;-82
2022/12/17 16:33:57;;;;;;;41.95;25.08;;;;;;;;;;5068011;28;20045;-81
2022/12/17 16:36:42;;;;;;;38.55;21.13;;;;;;;;;;5062305;28;20029;-82
2022/12/17 16:39:31;;;;;;;45.60;24.23;;;;;;;;;;5054605;28;20053;-81
2022/12/17 16:42:17;;;;;;;47.95;25.45;;;;;;;;;;5061417;28;20044;-80
2022/12/17 16:45:02;;;;;;;43.33;25.08;;;;;;;;;;5070553;28;20037;-81
2022/12/17 16:47:49;;;;;;;37.40;19.65;;;;;;;;;;5073407;28;20049;-82
2022/12/17 16:50:34;;;;;;;38.55;22.27;;;;;;;;;;5071589;28;20037;-82
2022/12/17 16:53:21;;;;;;;38.10;20.52;;;;;;;;;;5065275;28;20033;-83
2022/12/17 16:56:07;;;;;;;45.78;23.60;;;;;;;;;;5066516;28;20041;-82
2022/12/17 16:58:53;;;;;;;52.92;27.25;;;;;;;;;;5073487;28;20040;-81
2022/12/17 17:01:40;;;;;;;42.90;24.80;;;;;;;;;;5076872;28;20044;-82
2022/12/17 17:04:25;;;;;;;42.13;22.13;;;;;;;;;;5083259;28;20040;-81
2022/12/17 17:07:10;;;;;;;43.28;23.90;;;;;;;;;;5083280;28;20459;-81
2022/12/17 17:09:56;;;;;;;33.70;19.42;;;;;;;;;;5083412;28;20383;-82
2022/12/17 17:12:42;;;;;;;49.65;23.20;;;;;;;;;;5076368;28;20052;-82
2022/12/17 17:15:28;;;;;;;47.33;23.27;;;;;;;;;;5083226;28;20048;-83
2022/12/17 17:18:13;;;;;;;44.60;22.73;;;;;;;;;;5083398;28;20040;-82
2022/12/17 17:21:17;;;;;;;44.28;24.83;;;;;;;;;;5076483;28;20044;-83
2022/12/17 17:24:10;;;;;;;44.17;24.38;;;;;;;;;;5083546;28;20463;-83
2022/12/17 17:26:56;;;;;;;40.38;21.63;;;;;;;;;;5076367;28;20036;-83
2022/12/17 17:29:41;;;;;;;42.35;23.35;;;;;;;;;;5082993;28;20375;-82
2022/12/17 17:32:27;;;;;;;38.00;23.05;;;;;;;;;;5076327;28;20045;-83
2022/12/17 17:35:12;;;;;;;38.38;20.70;;;;;;;;;;5082709;28;20048;-82
2022/12/17 17:37:58;;;;;;;49.60;26.50;;;;;;;;;;5085715;28;20045;-83
2022/12/17 17:40:43;;;;;;;34.67;19.58;;;;;;;;;;5087687;28;20049;-82
2022/12/17 17:43:30;;;;;;;32.35;16.80;;;;;;;;;;5092420;28;20040;-80
2022/12/17 17:46:18;;;;;;;22.45;11.95;;;;;;;;;;5090529;28;20040;-83
2022/12/17 17:49:06;;;;;;;12.52;7.90;;;;;;;;;;5085216;28;20036;-83
2022/12/17 17:51:51;;;;;;;34.08;18.95;;;;;;;;;;5075829;28;20467;-83
2022/12/17 17:54:38;;;;;;;22.25;11.32;;;;;;;;;;5067414;28;20379;-83
2022/12/17 17:57:23;;;;;;;17.98;11.23;;;;;;;;;;5075504;28;20041;-83
2022/12/17 18:00:10;;;;;;;20.52;11.00;;;;;;;;;;5075944;28;20032;-82
2022/12/17 18:02:56;;;;;;;19.35;12.18;;;;;;;;;;5058708;28;20033;-82
2022/12/17 18:05:42;;;;;;;22.60;14.85;;;;;;;;;;5074112;28;20036;-82
2022/12/17 18:08:31;;;;;;;32.80;20.65;;;;;;;;;;5075193;28;20032;-82
2022/12/17 18:11:18;;;;;;;22.75;14.45;;;;;;;;;;5074401;28;20033;-82
2022/12/17 18:14:06;;;;;;;31.55;13.73;;;;;;;;;;5075807;28;20460;-82
2022/12/17 18:16:51;;;;;;;27.90;14.55;;;;;;;;;;5075091;28;20041;-82
2022/12/17 18:19:37;;;;;;;43.97;23.80;;;;;;;;;;5082353;28;20044;-81
2022/12/17 18:22:23;;;;;;;42.53;17.27;;;;;;;;;;5075039;28;20462;-81
2022/12/17 18:25:09;;;;;;;29.55;16.75;;;;;;;;;;5082148;28;20045;-82
2022/12/17 18:27:54;;;;;;;32.83;17.25;;;;;;;;;;5075227;28;20040;-81
2022/12/17 18:30:44;;;;;;;46.58;20.92;;;;;;;;;;5082041;28;20475;-82
2022/12/17 18:33:29;;;;;;;24.20;13.18;;;;;;;;;;5081824;28;20052;-82
2022/12/17 18:36:19;;;;;;;34.25;19.17;;;;;;;;;;5075064;28;20036;-83
2022/12/17 18:39:10;;;;;;;21.58;11.90;;;;;;;;;;5082007;28;20040;-83
2022/12/17 18:44:59;;;;;;;41.08;21.77;;;;;;;;;;5074844;28;20040;-82
2022/12/17 18:47:44;;;;;;;19.48;12.45;;;;;;;;;;5075115;28;20048;-82
2022/12/17 18:50:30;;;;;;;20.08;11.73;;;;;;;;;;5081435;28;20379;-81
2022/12/17 18:53:15;;;;;;;21.75;10.55;;;;;;;;;;5075083;28;20046;-81
2022/12/17 18:56:10;;;;;;;30.35;15.23;;;;;;;;;;5081045;28;20041;-81
2022/12/17 18:58:56;;;;;;;8.07;6.30;;;;;;;;;;5074311;28;20033;-82
2022/12/17 19:01:42;;;;;;;38.60;21.38;;;;;;;;;;5074629;28;20052;-81
2022/12/17 19:04:27;;;;;;;37.25;21.00;;;;;;;;;;5081153;28;20387;-82
2022/12/17 19:07:13;;;;;;;34.67;19.02;;;;;;;;;;5074293;28;20037;-82
2022/12/17 19:09:58;;;;;;;41.70;22.17;;;;;;;;;;5081123;28;20052;-82
2022/12/17 19:12:44;;;;;;;39.50;20.30;;;;;;;;;;5074123;28;20037;-82
2022/12/17 19:15:29;;;;;;;39.60;19.75;;;;;;;;;;5074252;28;20052;-82
2022/12/17 19:18:15;;;;;;;28.08;15.30;;;;;;;;;;5075055;28;20448;-81
2022/12/17 19:21:00;;;;;;;45.22;22.48;;;;;;;;;;5065900;28;20036;-82
2022/12/17 19:23:47;;;;;;;60.30;29.25;;;;;;;;;;5074368;28;20040;-82
2022/12/17 19:26:33;;;;;;;49.35;26.17;;;;;;;;;;5080820;28;20477;-83
2022/12/17 19:29:19;;;;;;;62.33;32.17;;;;;;;;;;5074712;28;20053;-82
2022/12/17 19:32:04;;;;;;;60.88;30.35;;;;;;;;;;5074052;28;20375;-83
2022/12/17 19:34:49;;;;;;;397.90;211.50;;;;;;;;;;5081366;28;20044;-82
2022/12/17 19:37:35;;;;;;;71.15;31.60;;;;;;;;;;5074166;28;20040;-84
2022/12/17 19:40:20;;;;;;;67.80;29.77;;;;;;;;;;5080548;28;20459;-83
2022/12/17 19:43:06;;;;;;;63.60;29.17;;;;;;;;;;5074212;28;20052;-83
2022/12/17 19:45:52;;;;;;;63.40;30.48;;;;;;;;;;5073928;28;20044;-83
2022/12/17 19:48:39;;;;;;;53.92;22.20;;;;;;;;;;5073413;28;20037;-84
2022/12/17 19:51:26;;;;;;;42.60;23.02;;;;;;;;;;5074182;28;20052;-85
2022/12/17 19:54:13;;;;;;;49.03;23.48;;;;;;;;;;5080362;28;20044;-84
2022/12/17 19:56:59;;;;;;;20.98;11.73;;;;;;;;;;5073706;28;20044;-84
2022/12/17 19:59:45;;;;;;;28.95;15.00;;;;;;;;;;5081192;28;20040;-83
2022/12/17 20:02:30;;;;;;;19.33;10.27;;;;;;;;;;5073997;28;20044;-83
2022/12/17 20:05:16;;;;;;;41.08;21.48;;;;;;;;;;5074285;28;20044;-85
2022/12/17 20:08:02;;;;;;;44.63;23.27;;;;;;;;;;5080891;28;20467;-81
2022/12/17 20:10:47;;;;;;;58.25;26.38;;;;;;;;;;5080740;28;20040;-82
2022/12/17 20:13:32;;;;;;;50.75;26.17;;;;;;;;;;5059107;28;20460;-82
2022/12/17 20:16:17;;;;;;;50.17;24.98;;;;;;;;;;5080226;28;20033;-82
2022/12/17 20:19:05;;;;;;;65.68;30.33;;;;;;;;;;5081230;28;20040;-83
2022/12/17 20:21:51;;;;;;;59.13;27.42;;;;;;;;;;5086762;28;20045;-84
2022/12/17 20:24:38;;;;;;;78.03;31.23;;;;;;;;;;5082402;28;20044;-78
2022/12/17 20:27:22;;;;;;;65.32;26.70;;;;;;;;;;5096646;28;20028;-77
2022/12/17 20:30:09;;;;;;;61.50;29.48;;;;;;;;;;5102717;28;20037;-84
2022/12/17 20:32:55;;;;;;;38.03;20.13;;;;;;;;;;5089208;28;20044;-82
2022/12/17 20:35:40;;;;;;;41.47;21.45;;;;;;;;;;5077662;28;20036;-82
2022/12/17 20:38:26;;;;;;;58.90;27.55;;;;;;;;;;5069351;28;20459;-83
2022/12/17 20:41:14;;;;;;;76.88;31.23;;;;;;;;;;5077174;28;20040;-83
2022/12/17 20:44:06;;;;;;;38.95;22.08;;;;;;;;;;5084347;28;20044;-82
2022/12/17 20:46:52;;;;;;;48.03;22.20;;;;;;;;;;5077607;28;20041;-83
2022/12/17 20:49:37;;;;;;;43.97;21.42;;;;;;;;;;5077411;28;20041;-83
2022/12/17 20:52:23;;;;;;;32.90;16.08;;;;;;;;;;5084429;28;20045;-82
2022/12/17 20:55:08;;;;;;;25.83;12.68;;;;;;;;;;5077278;28;20033;-82
2022/12/17 20:57:54;;;;;;;46.45;23.75;;;;;;;;;;5084104;28;20052;-82
2022/12/17 21:00:40;;;;;;;34.72;18.08;;;;;;;;;;5076663;28;20044;-82
2022/12/17 21:03:27;;;;;;;30.77;13.73;;;;;;;;;;5076549;28;20119;-84
2022/12/17 21:06:18;;;;;;;41.42;22.98;;;;;;;;;;5068745;28;20044;-83
2022/12/17 21:09:05;;;;;;;102.03;43.75;;;;;;;;;;5076654;28;20473;-84
2022/12/17 21:11:50;;;;;;;120.18;52.83;;;;;;;;;;5077041;28;20044;-84
2022/12/17 21:14:36;;;;;;;49.85;25.38;;;;;;;;;;5075978;28;20479;-82
2022/12/17 21:17:21;;;;;;;71.10;30.58;;;;;;;;;;5077280;28;20052;-83
2022/12/17 21:20:07;;;;;;;80.65;33.75;;;;;;;;;;5083702;28;20037;-83
2022/12/17 21:22:52;;;;;;;105.07;39.70;;;;;;;;;;5079124;28;20052;-83
2022/12/17 21:25:40;;;;;;;112.60;38.83;;;;;;;;;;5062330;28;20041;-83
2022/12/17 21:28:26;;;;;;;44.70;22.80;;;;;;;;;;5076281;28;20463;-83
2022/12/17 21:31:23;;;;;;;50.03;24.42;;;;;;;;;;5075274;28;20036;-83
2022/12/17 21:34:12;;;;;;;60.13;26.77;;;;;;;;;;5076499;28;20033;-83
2022/12/17 21:36:57;;;;;;;61.95;29.52;;;;;;;;;;5082988;28;20044;-84
2022/12/17 21:39:43;;;;;;;46.80;23.67;;;;;;;;;;5076781;28;20044;-84
2022/12/17 21:45:42;;;;;;;40.75;20.88;;;;;;;;;;5076318;28;20044;-83
2022/12/17 21:48:27;;;;;;;95.90;36.58;;;;;;;;;;5076123;28;20040;-83
2022/12/17 21:51:14;;;;;;;36.85;18.35;;;;;;;;;;5075839;28;20032;-83
2022/12/17 21:54:01;;;;;;;28.40;13.65;;;;;;;;;;5076280;28;20041;-84
2022/12/17 21:56:48;;;;;;;35.00;18.00;;;;;;;;;;5082947;28;20032;-84
2022/12/17 21:59:34;;;;;;;29.48;13.88;;;;;;;;;;5082709;28;20036;-83
2022/12/17 22:02:19;;;;;;;16.63;9.88;;;;;;;;;;5075993;28;20160;-85
2022/12/17 22:05:04;;;;;;;25.13;12.88;;;;;;;;;;5076027;28;20403;-84
2022/12/17 22:07:50;;;;;;;38.75;21.10;;;;;;;;;;5082853;28;20044;-85
2022/12/17 22:10:39;;;;;;;39.38;18.40;;;;;;;;;;5076115;28;20045;-84
2022/12/17 22:16:31;;;;;;;17.33;9.13;;;;;;;;;;5075500;28;20399;-83
2022/12/17 22:19:21;;;;;;;38.83;20.38;;;;;;;;;;5075821;28;20041;-85
2022/12/17 22:22:07;;;;;;;41.15;16.52;;;;;;;;;;5075896;28;20040;-85
2022/12/17 22:24:56;;;;;;;22.40;12.23;;;;;;;;;;5076016;28;20041;-85
2022/12/17 22:27:41;;;;;;;35.40;16.02;;;;;;;;;;5075955;28;20036;-83
2022/12/17 22:33:30;;;;;;;50.88;24.30;;;;;;;;;;5075824;28;20040;-84
2022/12/17 22:36:16;;;;;;;49.72;24.55;;;;;;;;;;5074885;28;20033;-82
2022/12/17 22:39:08;;;;;;;41.80;19.30;;;;;;;;;;5075339;28;20044;-83
2022/12/17 22:44:57;;;;;;;61.75;27.33;;;;;;;;;;5074659;28;20045;-83
2022/12/17 22:47:42;;;;;;;47.17;23.30;;;;;;;;;;5075313;28;20382;-83
2022/12/17 22:50:28;;;;;;;59.53;28.20;;;;;;;;;;5075010;28;20037;-84
2022/12/17 22:53:14;;;;;;;44.78;20.45;;;;;;;;;;5081946;28;20036;-84
2022/12/17 22:56:04;;;;;;;15.52;8.98;;;;;;;;;;5075074;28;20036;-83
2022/12/17 22:58:50;;;;;;;46.30;23.50;;;;;;;;;;5074815;28;20045;-84
2022/12/17 23:01:35;;;;;;;36.17;19.45;;;;;;;;;;5074957;28;20044;-83
2022/12/17 23:04:20;;;;;;;39.90;19.73;;;;;;;;;;5074698;28;20044;-84
2022/12/17 23:07:05;;;;;;;37.67;19.40;;;;;;;;;;5075702;28;20032;-84
2022/12/17 23:09:50;;;;;;;33.65;16.13;;;;;;;;;;5080702;28;20044;-84
2022/12/17 23:12:51;;;;;;;43.15;22.08;;;;;;;;;;5090888;28;20044;-83
2022/12/17 23:15:37;;;;;;;37.03;19.10;;;;;;;;;;5097724;28;20040;-83
2022/12/17 23:18:22;;;;;;;31.13;16.08;;;;;;;;;;5092432;28;20044;-83
2022/12/17 23:21:09;;;;;;;36.75;17.98;;;;;;;;;;5076384;28;20107;-84
2022/12/17 23:23:57;;;;;;;34.70;18.38;;;;;;;;;;5081670;28;20471;-83
2022/12/17 23:26:41;;;;;;;30.10;16.23;;;;;;;;;;5074989;28;20048;-84
2022/12/17 23:29:27;;;;;;;13.13;7.78;;;;;;;;;;5074913;28;20025;-83
2022/12/17 23:32:13;;;;;;;37.67;16.60;;;;;;;;;;5074885;28;20036;-83
2022/12/17 23:34:58;;;;;;;32.05;16.23;;;;;;;;;;5074745;28;20475;-84
2022/12/17 23:37:44;;;;;;;37.53;16.60;;;;;;;;;;5074715;28;20070;-84
2022/12/17 23:40:29;;;;;;;16.98;8.68;;;;;;;;;;5074854;28;20559;-84
2022/12/17 23:43:15;;;;;;;27.90;16.58;;;;;;;;;;5074251;28;20040;-84
2022/12/17 23:46:02;;;;;;;27.23;13.25;;;;;;;;;;5074847;28;20044;-85
2022/12/17 23:48:47;;;;;;;23.35;13.25;;;;;;;;;;5059782;28;20036;-84
2022/12/17 23:51:33;;;;;;;18.48;9.23;;;;;;;;;;5074848;28;20048;-84
2022/12/17 23:54:18;;;;;;;32.75;15.10;;;;;;;;;;5073920;28;20472;-83
2022/12/17 23:57:04;;;;;;;25.90;12.60;;;;;;;;;;5080772;28;20036;-85
2022/12/17 23:59:49;;;;;;;37.80;17.80;;;;;;;;;;5074414;28;20044;-84
